Time;durP1;ratioP1;P1;durP2;ratioP2;P2;SDS_P1;SDS_P2;PMS_P1;PMS_P2;Temp;Humidity;BMP_temperature;BMP_pressure;BME280_temperature;BME280_humidity;BME280_pressure;Samples;Min_cycle;Max_cycle;Signal;HPM_P1;HPM_P2
2024/02/09 00:01:22;;;;;;;14.95;3.33;;;10.40;99.90;;;;;;5096231;28;20081;-67
2024/02/09 00:03:49;;;;;;;14.20;4.88;;;10.40;99.90;;;;;;5105733;27;20541;-67
2024/02/09 00:06:31;;;;;;;16.08;2.55;;;10.40;99.90;;;;;;5096563;28;20116;-66
2024/02/09 00:08:58;;;;;;;7.78;2.13;;;10.40;99.90;;;;;;5095444;28;20078;-66
2024/02/09 00:11:28;;;;;;;10.00;2.22;;;10.40;99.90;;;;;;5096815;28;20052;-65
2024/02/09 00:13:57;;;;;;;11.25;3.40;;;10.40;99.90;;;;;;5102364;28;20047;-66
2024/02/09 00:16:24;;;;;;;8.35;2.72;;;10.40;99.90;;;;;;5099305;28;20484;-65
2024/02/09 00:18:51;;;;;;;12.35;2.85;;;10.40;99.90;;;;;;5101833;28;20104;-65
2024/02/09 00:21:27;;;;;;;20.30;3.58;;;10.50;99.90;;;;;;5097042;28;20050;-66
2024/02/09 00:23:54;;;;;;;18.27;3.67;;;10.50;99.90;;;;;;5101801;28;20044;-65
2024/02/09 00:26:20;;;;;;;15.10;3.42;;;10.50;99.90;;;;;;5098986;28;20040;-65
2024/02/09 00:28:47;;;;;;;22.42;3.20;;;10.50;99.90;;;;;;5106301;28;20530;-65
2024/02/09 00:31:14;;;;;;;12.45;3.65;;;10.50;99.90;;;;;;5098489;28;20047;-66
2024/02/09 00:33:42;;;;;;;10.63;3.17;;;10.50;99.90;;;;;;5102898;28;20086;-65
2024/02/09 00:36:10;;;;;;;23.98;3.72;;;10.50;99.90;;;;;;5096340;28;20048;-66
2024/02/09 00:38:39;;;;;;;11.25;3.00;;;10.50;99.90;;;;;;5111087;28;20044;-68
2024/02/09 00:41:24;;;;;;;20.70;4.18;;;10.60;99.90;;;;;;5099925;28;20067;-65
2024/02/09 00:43:56;;;;;;;18.02;3.35;;;10.60;99.90;;;;;;5108156;28;20053;-66
2024/02/09 00:46:50;;;;;;;13.02;2.88;;;10.60;99.90;;;;;;5096087;28;20131;-65
2024/02/09 00:49:18;;;;;;;17.92;4.70;;;10.60;99.90;;;;;;5091663;28;20055;-69
2024/02/09 00:51:45;;;;;;;15.70;2.90;;;10.50;99.90;;;;;;5101188;28;20715;-65
2024/02/09 00:54:14;;;;;;;19.40;3.53;;;10.60;99.90;;;;;;5102096;27;20142;-65
2024/02/09 00:56:41;;;;;;;10.68;3.17;;;10.60;99.90;;;;;;5100645;28;20039;-65
2024/02/09 00:59:09;;;;;;;15.02;3.38;;;10.60;99.90;;;;;;5093308;28;20051;-65
2024/02/09 01:01:37;;;;;;;12.88;2.90;;;10.60;99.90;;;;;;5092765;28;20303;-66
2024/02/09 01:04:11;;;;;;;13.80;3.00;;;10.60;99.90;;;;;;5096796;28;20126;-65
2024/02/09 01:06:51;;;;;;;19.10;4.35;;;10.60;99.90;;;;;;5104875;28;20562;-65
2024/02/09 01:09:18;;;;;;;13.23;2.20;;;10.60;99.90;;;;;;5094755;28;20043;-65
2024/02/09 01:11:45;;;;;;;10.10;2.72;;;10.60;99.90;;;;;;5094561;28;20075;-67
2024/02/09 02:46:13;;;;;;;14.88;2.95;;;10.60;99.90;;;;;;5093329;28;20557;-68
2024/02/09 03:05:32;;;;;;;17.17;3.08;;;10.60;99.90;;;;;;5098530;28;20477;-66
2024/02/09 03:07:59;;;;;;;14.75;2.65;;;10.60;99.90;;;;;;5095397;28;20059;-66
2024/02/09 03:10:29;;;;;;;14.48;2.80;;;10.70;99.90;;;;;;5099979;28;20040;-65
2024/02/09 03:12:56;;;;;;;13.02;3.03;;;10.60;99.90;;;;;;5099562;28;20050;-65
2024/02/09 03:15:23;;;;;;;17.38;3.08;;;10.70;99.90;;;;;;5099295;28;20100;-66
2024/02/09 03:17:56;;;;;;;13.40;3.88;;;10.70;99.90;;;;;;5100810;28;20054;-65
2024/02/09 03:20:29;;;;;;;17.92;4.68;;;10.60;99.90;;;;;;5091886;28;20071;-65
2024/02/09 03:22:56;;;;;;;21.45;3.25;;;10.70;99.90;;;;;;5100500;28;20132;-65
2024/02/09 03:25:22;;;;;;;17.48;3.22;;;10.60;99.90;;;;;;5099977;27;20110;-65
2024/02/09 03:27:50;;;;;;;15.00;3.15;;;10.60;99.90;;;;;;5102885;28;20052;-65
2024/02/09 03:30:17;;;;;;;18.98;3.35;;;10.60;99.90;;;;;;5102447;28;20052;-65
2024/02/09 03:32:46;;;;;;;19.70;4.03;;;10.60;99.90;;;;;;5102181;28;20046;-65
2024/02/09 03:35:31;;;;;;;11.20;2.65;;;10.60;99.90;;;;;;5107222;28;20047;-65
2024/02/09 03:37:59;;;;;;;24.35;4.40;;;10.60;99.90;;;;;;5100927;28;20047;-65
2024/02/09 03:40:25;;;;;;;22.30;3.10;;;10.60;99.90;;;;;;5107461;28;20174;-65
2024/02/09 03:42:52;;;;;;;20.20;4.43;;;10.60;99.90;;;;;;5097874;28;20497;-65
2024/02/09 03:45:19;;;;;;;27.55;3.10;;;10.60;99.90;;;;;;5102725;28;20067;-64
2024/02/09 03:47:52;;;;;;;12.93;3.15;;;10.60;99.90;;;;;;5100583;28;20667;-64
2024/02/09 03:50:19;;;;;;;17.10;3.97;;;10.60;99.90;;;;;;5101340;28;20051;-67
2024/02/09 03:52:49;;;;;;;12.60;2.25;;;10.60;99.90;;;;;;5101985;28;20680;-66
2024/02/09 03:55:39;;;;;;;17.98;2.75;;;10.50;99.90;;;;;;5098266;28;20051;-67
2024/02/09 03:58:07;;;;;;;18.35;4.15;;;10.50;99.90;;;;;;5095304;28;20051;-66
2024/02/09 04:00:33;;;;;;;26.00;3.38;;;10.50;99.90;;;;;;5088229;28;20055;-67
2024/02/09 04:03:00;;;;;;;12.02;2.28;;;10.50;99.90;;;;;;5093690;28;20143;-65
2024/02/09 04:05:31;;;;;;;14.82;2.83;;;10.60;99.90;;;;;;5102525;28;20411;-65
2024/02/09 04:08:05;;;;;;;19.58;3.00;;;10.50;99.90;;;;;;5101285;28;20052;-65
2024/02/09 04:10:37;;;;;;;19.80;3.83;;;10.50;99.90;;;;;;5093325;28;20499;-66
2024/02/09 04:13:15;;;;;;;16.55;2.78;;;10.50;99.90;;;;;;5089771;28;20056;-65
2024/02/09 04:15:42;;;;;;;14.27;2.28;;;10.50;99.90;;;;;;5101618;28;20130;-65
2024/02/09 04:18:09;;;;;;;21.15;2.80;;;10.50;99.90;;;;;;5105181;28;20044;-65
2024/02/09 04:20:37;;;;;;;19.00;3.05;;;10.50;99.90;;;;;;5091123;28;20045;-66
2024/02/09 04:23:14;;;;;;;13.32;2.38;;;10.50;99.90;;;;;;5094589;28;20108;-65
2024/02/09 04:25:50;;;;;;;12.32;3.05;;;10.50;99.90;;;;;;5098621;28;20519;-64
2024/02/09 04:28:17;;;;;;;13.52;2.17;;;10.50;99.90;;;;;;5096393;28;20051;-65
2024/02/09 04:30:46;;;;;;;17.27;2.85;;;10.50;99.90;;;;;;5101018;28;20616;-64
2024/02/09 04:33:15;;;;;;;23.50;2.67;;;10.50;99.90;;;;;;5101216;28;20101;-65
2024/02/09 04:35:43;;;;;;;16.42;2.75;;;10.40;99.90;;;;;;5097794;28;20093;-64
2024/02/09 04:38:10;;;;;;;16.50;2.63;;;10.50;99.90;;;;;;5090316;28;20720;-64
2024/02/09 04:40:37;;;;;;;25.98;3.95;;;10.40;99.90;;;;;;5095698;28;20052;-65
2024/02/09 04:43:23;;;;;;;15.90;2.40;;;10.50;99.90;;;;;;5099793;28;20156;-65
2024/02/09 04:46:00;;;;;;;16.83;3.55;;;10.50;99.90;;;;;;5095943;28;20058;-65
2024/02/09 04:48:27;;;;;;;8.80;2.25;;;10.50;99.90;;;;;;5105467;28;20043;-65
2024/02/09 04:50:55;;;;;;;14.00;1.73;;;10.50;99.90;;;;;;5097279;28;20590;-65
2024/02/09 04:53:22;;;;;;;12.52;2.47;;;10.50;99.90;;;;;;5093170;28;20044;-64
2024/02/09 04:55:58;;;;;;;20.00;2.42;;;10.40;99.90;;;;;;5097744;28;20112;-65
2024/02/09 04:58:25;;;;;;;11.23;1.83;;;10.40;99.90;;;;;;5098366;28;20062;-65
2024/02/09 05:00:52;;;;;;;6.38;1.90;;;10.40;99.90;;;;;;5098680;28;20104;-66
2024/02/09 05:03:19;;;;;;;14.05;2.10;;;10.40;99.90;;;;;;5101750;28;20112;-65
2024/02/09 05:05:46;;;;;;;14.20;2.08;;;10.40;99.90;;;;;;5100856;28;20054;-65
2024/02/09 05:08:13;;;;;;;18.35;2.75;;;10.40;99.90;;;;;;5095852;28;20511;-65
2024/02/09 05:10:49;;;;;;;20.55;2.33;;;10.40;99.90;;;;;;5100964;28;20439;-64
2024/02/09 05:13:16;;;;;;;19.05;2.13;;;10.40;99.90;;;;;;5093926;28;20395;-64
2024/02/09 05:15:43;;;;;;;14.43;2.20;;;10.40;99.90;;;;;;5101773;28;20513;-64
2024/02/09 05:18:13;;;;;;;13.27;2.15;;;10.40;99.90;;;;;;5096612;28;20047;-64
2024/02/09 05:20:40;;;;;;;16.77;4.30;;;10.40;99.90;;;;;;5096177;28;20053;-64
2024/02/09 05:23:07;;;;;;;10.88;1.80;;;10.40;99.90;;;;;;5094055;28;20056;-64
2024/02/09 05:25:35;;;;;;;16.90;2.33;;;10.40;99.90;;;;;;5097364;28;20098;-64
2024/02/09 05:28:08;;;;;;;9.45;2.00;;;10.40;99.90;;;;;;5094802;28;20052;-65
2024/02/09 05:30:35;;;;;;;15.70;3.33;;;10.40;99.90;;;;;;5097934;28;20086;-65
2024/02/09 05:33:04;;;;;;;12.50;3.47;;;10.40;99.90;;;;;;5098365;28;20044;-64
2024/02/09 05:35:31;;;;;;;16.60;3.90;;;10.40;99.90;;;;;;5090760;28;20040;-65
2024/02/09 05:37:58;;;;;;;17.30;3.08;;;10.40;99.90;;;;;;5101995;28;20047;-64
2024/02/09 05:40:25;;;;;;;12.13;2.38;;;10.30;99.90;;;;;;5099461;28;20127;-64
2024/02/09 05:42:52;;;;;;;15.05;2.28;;;10.30;99.90;;;;;;5101259;28;20050;-64
2024/02/09 05:45:18;;;;;;;13.23;2.33;;;10.30;99.90;;;;;;5092627;28;20702;-64
2024/02/09 05:47:46;;;;;;;16.27;2.78;;;10.30;99.90;;;;;;5096055;28;20100;-67
2024/02/09 05:50:12;;;;;;;15.20;2.35;;;10.30;99.90;;;;;;5098519;28;20048;-64
2024/02/09 05:52:50;;;;;;;12.50;1.95;;;10.30;99.90;;;;;;5096814;28;20467;-64
2024/02/09 05:55:17;;;;;;;9.82;2.17;;;10.40;99.90;;;;;;5098753;28;20056;-64
2024/02/09 05:57:44;;;;;;;14.52;2.17;;;10.30;99.90;;;;;;5093454;28;20707;-64
2024/02/09 06:00:16;;;;;;;16.85;2.22;;;10.40;99.90;;;;;;5094704;28;20681;-64
2024/02/09 06:02:43;;;;;;;20.00;2.42;;;10.30;99.90;;;;;;5099071;28;20050;-64
2024/02/09 06:05:12;;;;;;;15.10;2.20;;;10.40;99.90;;;;;;5097504;28;20120;-64
2024/02/09 06:07:39;;;;;;;17.42;2.50;;;10.30;99.90;;;;;;5095737;28;20142;-64
2024/02/09 06:10:07;;;;;;;13.15;2.13;;;10.30;99.90;;;;;;5095759;28;20113;-64
2024/02/09 06:12:35;;;;;;;18.10;2.63;;;10.30;99.90;;;;;;5094601;28;20097;-64
2024/02/09 06:15:10;;;;;;;18.45;4.70;;;10.30;99.90;;;;;;5096012;28;20568;-65
2024/02/09 06:17:46;;;;;;;10.00;2.35;;;10.30;99.90;;;;;;5090471;28;20094;-64
2024/02/09 06:20:22;;;;;;;12.93;2.08;;;10.30;99.90;;;;;;5096270;28;20600;-63
2024/02/09 06:22:50;;;;;;;10.77;1.98;;;10.30;99.90;;;;;;5098725;28;20043;-64
2024/02/09 06:25:17;;;;;;;9.48;1.80;;;10.30;99.90;;;;;;5098411;28;20075;-64
2024/02/09 06:27:45;;;;;;;11.95;1.60;;;10.30;99.90;;;;;;5097306;28;20894;-64
2024/02/09 06:30:12;;;;;;;14.07;2.75;;;10.20;99.90;;;;;;5101718;28;20063;-64
2024/02/09 06:32:39;;;;;;;16.15;1.88;;;10.30;99.90;;;;;;5098397;28;20521;-64
2024/02/09 06:35:07;;;;;;;15.80;2.33;;;10.30;99.90;;;;;;5089250;28;20048;-64
2024/02/09 06:37:40;;;;;;;14.23;2.10;;;10.30;99.90;;;;;;5099060;28;20043;-64
2024/02/09 06:40:13;;;;;;;12.27;2.33;;;10.30;99.90;;;;;;5096805;28;20505;-65
2024/02/09 06:42:43;;;;;;;10.07;2.15;;;10.30;99.90;;;;;;5092968;28;20047;-65
2024/02/09 06:45:14;;;;;;;10.02;2.30;;;10.30;99.90;;;;;;5094670;28;20134;-65
2024/02/09 06:47:41;;;;;;;7.30;1.58;;;10.20;99.90;;;;;;5099551;28;20477;-65
2024/02/09 06:50:10;;;;;;;3.08;1.00;;;10.20;99.90;;;;;;5089822;28;20044;-65
2024/02/09 06:53:05;;;;;;;2.65;0.70;;;10.10;99.90;;;;;;5091778;28;20549;-64
2024/02/09 06:55:38;;;;;;;4.28;0.93;;;10.10;99.90;;;;;;5096050;28;20060;-64
2024/02/09 06:58:05;;;;;;;4.25;0.82;;;10.10;99.90;;;;;;5097133;28;20074;-64
2024/02/09 07:00:36;;;;;;;1.83;0.88;;;10.10;99.90;;;;;;5106089;28;20590;-64
2024/02/09 07:03:04;;;;;;;8.00;1.17;;;10.10;99.90;;;;;;5102897;28;20047;-64
2024/02/09 07:05:31;;;;;;;10.13;1.90;;;10.10;99.90;;;;;;5103461;28;20166;-65
2024/02/09 07:07:58;;;;;;;8.43;2.05;;;10.10;99.90;;;;;;5099027;28;20143;-64
2024/02/09 07:10:25;;;;;;;8.88;1.88;;;10.20;99.90;;;;;;5103065;28;20044;-64
2024/02/09 07:12:53;;;;;;;11.85;1.95;;;10.10;99.90;;;;;;5098928;28;20054;-64
2024/02/09 07:15:21;;;;;;;16.42;1.88;;;10.20;99.90;;;;;;5100591;28;20043;-64
2024/02/09 07:17:50;;;;;;;11.05;2.55;;;10.20;99.90;;;;;;5097842;28;20620;-65
2024/02/09 07:20:17;;;;;;;12.55;3.53;;;10.20;99.90;;;;;;5097996;28;20063;-65
2024/02/09 07:22:55;;;;;;;9.10;2.08;;;10.20;99.90;;;;;;5096569;28;20154;-64
2024/02/09 07:25:41;;;;;;;16.08;2.15;;;10.30;99.90;;;;;;5101318;28;20052;-63
2024/02/09 07:28:08;;;;;;;20.60;3.15;;;10.30;99.90;;;;;;5099685;28;20063;-63
2024/02/09 07:30:35;;;;;;;19.38;2.53;;;10.30;99.90;;;;;;5093635;28;20429;-64
2024/02/09 07:33:03;;;;;;;14.68;2.95;;;10.30;99.90;;;;;;5100789;28;20171;-64
2024/02/09 07:35:30;;;;;;;17.80;3.03;;;10.30;99.90;;;;;;5093073;28;20051;-64
2024/02/09 07:37:57;;;;;;;22.13;3.42;;;10.30;99.90;;;;;;5095798;28;20059;-63
2024/02/09 07:40:24;;;;;;;16.88;2.15;;;10.40;99.90;;;;;;5099683;28;20139;-64
2024/02/09 07:42:52;;;;;;;12.50;2.03;;;10.40;99.90;;;;;;5093958;28;20040;-64
2024/02/09 07:45:20;;;;;;;10.50;1.60;;;10.40;99.90;;;;;;5097499;28;20047;-64
2024/02/09 07:47:53;;;;;;;12.07;2.10;;;10.40;99.90;;;;;;5101713;28;20128;-64
2024/02/09 07:50:22;;;;;;;12.68;2.03;;;10.40;99.90;;;;;;5100046;28;20055;-65
2024/02/09 07:52:50;;;;;;;5.93;1.40;;;10.50;99.90;;;;;;5093754;28;20132;-64
2024/02/09 07:55:18;;;;;;;11.95;2.05;;;10.40;99.90;;;;;;5098531;28;20105;-64
2024/02/09 07:57:45;;;;;;;8.85;1.33;;;10.40;99.90;;;;;;5102218;28;20061;-64
2024/02/09 08:00:22;;;;;;;7.05;1.88;;;10.40;99.90;;;;;;5089755;28;20036;-64
2024/02/09 08:02:49;;;;;;;10.90;2.15;;;10.40;99.90;;;;;;5096895;28;20043;-64
2024/02/09 08:05:18;;;;;;;15.75;1.52;;;10.50;99.90;;;;;;5096522;28;20477;-64
2024/02/09 08:07:49;;;;;;;18.05;3.50;;;10.50;99.90;;;;;;5087829;28;20069;-63
2024/02/09 08:10:17;;;;;;;17.08;2.47;;;10.50;99.90;;;;;;5095708;28;20407;-63
2024/02/09 08:12:47;;;;;;;13.52;2.50;;;10.50;99.90;;;;;;5093869;28;20126;-64
2024/02/09 08:15:14;;;;;;;15.40;2.75;;;10.50;99.90;;;;;;5099601;28;20135;-64
2024/02/09 08:17:48;;;;;;;17.17;2.28;;;10.50;99.90;;;;;;5086529;28;20035;-63
2024/02/09 08:20:19;;;;;;;15.40;1.85;;;10.60;99.90;;;;;;5101808;28;20063;-64
2024/02/09 08:22:47;;;;;;;10.10;1.83;;;10.50;99.90;;;;;;5096116;28;20040;-64
2024/02/09 08:25:14;;;;;;;14.60;2.15;;;10.50;99.90;;;;;;5096233;28;20055;-63
2024/02/09 08:27:41;;;;;;;10.23;1.83;;;10.50;99.90;;;;;;5094094;28;20047;-63
2024/02/09 08:30:09;;;;;;;15.35;2.13;;;10.60;99.90;;;;;;5094531;28;20117;-63
2024/02/09 08:32:37;;;;;;;13.45;2.05;;;10.60;99.90;;;;;;5098938;28;20203;-63
2024/02/09 08:35:08;;;;;;;8.20;2.05;;;10.60;99.90;;;;;;5095892;28;20053;-64
2024/02/09 08:37:36;;;;;;;10.05;1.98;;;10.60;99.90;;;;;;5094607;28;20112;-63
2024/02/09 08:40:04;;;;;;;16.52;2.42;;;10.60;99.90;;;;;;5098217;28;20533;-63
2024/02/09 08:42:31;;;;;;;10.15;2.95;;;10.60;99.90;;;;;;5094749;28;20042;-63
2024/02/09 08:44:58;;;;;;;12.43;2.05;;;10.70;99.90;;;;;;5093711;28;20525;-64
2024/02/09 08:47:25;;;;;;;14.13;3.40;;;10.70;99.90;;;;;;5087316;28;20047;-69
2024/02/09 08:49:52;;;;;;;17.77;2.58;;;10.70;99.90;;;;;;5099173;28;20071;-65
2024/02/09 08:52:19;;;;;;;20.88;3.35;;;10.70;99.90;;;;;;5093732;28;20396;-63
2024/02/09 08:54:46;;;;;;;25.15;2.55;;;10.70;99.90;;;;;;5101331;28;20054;-65
2024/02/09 08:57:22;;;;;;;10.73;2.28;;;10.80;99.90;;;;;;5099470;28;20645;-64
2024/02/09 08:59:49;;;;;;;13.88;2.90;;;10.80;99.90;;;;;;5108224;28;20107;-64
2024/02/09 09:02:16;;;;;;;20.45;2.85;;;10.80;99.90;;;;;;5103325;28;20043;-64
2024/02/09 09:04:43;;;;;;;23.98;3.58;;;10.90;99.90;;;;;;5101671;28;20051;-64
2024/02/09 09:07:10;;;;;;;22.52;3.53;;;10.90;99.90;;;;;;5094689;28;20584;-64
2024/02/09 09:09:42;;;;;;;23.63;3.47;;;10.90;99.90;;;;;;5097806;28;20043;-63
2024/02/09 09:12:38;;;;;;;14.15;3.30;;;10.90;99.90;;;;;;5096960;28;20040;-67
2024/02/09 09:15:07;;;;;;;18.42;2.88;;;10.90;99.90;;;;;;5100280;28;20100;-64
2024/02/09 09:17:42;;;;;;;15.48;2.55;;;11.00;99.90;;;;;;5102547;28;20062;-63
2024/02/09 09:20:10;;;;;;;10.80;1.83;;;11.00;99.90;;;;;;5101453;28;20112;-63
2024/02/09 09:22:41;;;;;;;8.10;2.63;;;11.00;99.90;;;;;;5095500;28;20066;-64
2024/02/09 09:25:08;;;;;;;14.40;2.65;;;10.90;99.90;;;;;;5095197;28;20111;-64
2024/02/09 09:27:48;;;;;;;12.32;2.72;;;11.00;99.90;;;;;;5096813;28;20047;-64
2024/02/09 09:30:17;;;;;;;13.10;2.38;;;11.00;99.90;;;;;;5094139;28;20112;-63
2024/02/09 09:32:57;;;;;;;19.33;2.75;;;11.10;99.90;;;;;;5095039;28;20093;-65
2024/02/09 09:35:24;;;;;;;16.70;3.08;;;11.20;99.90;;;;;;5095706;28;20058;-63
2024/02/09 09:38:00;;;;;;;18.80;3.75;;;11.20;99.90;;;;;;5098543;28;20401;-64
2024/02/09 09:40:31;;;;;;;19.65;2.92;;;11.30;99.90;;;;;;5099850;28;20055;-64
2024/02/09 09:42:58;;;;;;;23.95;3.95;;;11.30;99.90;;;;;;5100158;28;20051;-62
2024/02/09 09:45:25;;;;;;;14.45;2.80;;;11.30;99.90;;;;;;5093309;28;20498;-63
2024/02/09 09:48:29;;;;;;;20.75;4.25;;;11.40;99.90;;;;;;5103101;28;20075;-63
2024/02/09 09:50:56;;;;;;;29.70;3.78;;;11.40;99.90;;;;;;5095379;28;20085;-63
2024/02/09 09:53:54;;;;;;;16.90;3.30;;;11.40;99.90;;;;;;5087722;28;20043;-64
2024/02/09 09:56:22;;;;;;;18.02;4.30;;;11.50;99.90;;;;;;5101259;28;20051;-64
2024/02/09 09:58:49;;;;;;;21.48;3.60;;;11.50;99.90;;;;;;5102680;28;20554;-64
2024/02/09 10:01:16;;;;;;;26.48;3.35;;;11.50;99.90;;;;;;5103440;28;20125;-67
2024/02/09 10:03:47;;;;;;;19.73;3.05;;;11.50;99.90;;;;;;5099736;28;20043;-64
2024/02/09 10:06:17;;;;;;;20.17;3.83;;;11.50;99.90;;;;;;5101176;28;20173;-64
2024/02/09 10:08:46;;;;;;;21.30;2.22;;;11.50;99.90;;;;;;5100495;28;20100;-65
2024/02/09 10:11:13;;;;;;;18.33;2.78;;;11.60;99.90;;;;;;5096589;28;20507;-64
2024/02/09 10:13:40;;;;;;;17.88;3.97;;;11.60;99.90;;;;;;5101128;28;20089;-65
2024/02/09 10:16:08;;;;;;;16.23;2.53;;;11.70;99.90;;;;;;5092900;28;20054;-65
2024/02/09 10:18:38;;;;;;;19.92;2.55;;;11.80;99.90;;;;;;5101216;28;20548;-64
2024/02/09 10:21:11;;;;;;;13.43;2.00;;;11.80;99.90;;;;;;5096659;28;20066;-65
2024/02/09 10:23:38;;;;;;;21.90;2.93;;;11.80;99.90;;;;;;5103110;28;20048;-63
2024/02/09 10:26:06;;;;;;;13.15;2.03;;;11.80;99.90;;;;;;5105567;28;20139;-63
2024/02/09 10:28:39;;;;;;;14.07;3.08;;;11.80;99.90;;;;;;5107718;28;20050;-64
2024/02/09 10:31:22;;;;;;;14.55;1.73;;;11.70;99.90;;;;;;5103514;28;20140;-65
2024/02/09 10:33:49;;;;;;;6.45;1.38;;;11.60;99.90;;;;;;5101439;28;20112;-64
2024/02/09 10:36:16;;;;;;;9.80;2.38;;;11.50;99.90;;;;;;5104551;28;20076;-64
2024/02/09 10:38:46;;;;;;;10.75;2.22;;;11.50;99.90;;;;;;5095447;28;20184;-64
2024/02/09 10:41:13;;;;;;;7.43;1.00;;;11.50;99.90;;;;;;5098354;28;20097;-62
2024/02/09 10:43:41;;;;;;;11.07;1.38;;;11.50;99.90;;;;;;5099293;28;20143;-66
2024/02/09 10:46:08;;;;;;;9.52;2.03;;;11.50;99.90;;;;;;5099137;28;20096;-64
2024/02/09 10:48:37;;;;;;;10.27;1.85;;;11.50;99.90;;;;;;5105198;28;20044;-63
2024/02/09 10:51:08;;;;;;;12.10;1.73;;;11.50;99.90;;;;;;5095887;28;20048;-64
2024/02/09 10:53:35;;;;;;;9.13;1.67;;;11.50;99.90;;;;;;5094248;28;20044;-64
2024/02/09 10:56:05;;;;;;;10.52;1.88;;;11.50;99.90;;;;;;5103993;28;20044;-64
2024/02/09 10:58:36;;;;;;;13.38;2.40;;;11.50;99.90;;;;;;5102105;28;20138;-64
2024/02/09 11:01:12;;;;;;;13.65;3.38;;;11.60;99.90;;;;;;5095110;28;20133;-63
2024/02/09 11:03:51;;;;;;;15.35;2.17;;;11.60;99.90;;;;;;5101764;28;20085;-64
2024/02/09 11:06:18;;;;;;;15.18;2.17;;;11.60;99.90;;;;;;5102249;28;20051;-64
2024/02/09 11:08:47;;;;;;;12.60;3.78;;;11.70;99.90;;;;;;5084335;28;20048;-64
2024/02/09 11:11:13;;;;;;;18.27;4.20;;;11.70;99.90;;;;;;5102302;28;20050;-64
2024/02/09 11:13:40;;;;;;;14.95;2.88;;;11.60;99.90;;;;;;5094198;28;20043;-64
2024/02/09 11:16:08;;;;;;;17.50;2.55;;;11.70;99.90;;;;;;5095347;28;20078;-64
2024/02/09 11:18:35;;;;;;;18.95;2.50;;;11.80;99.90;;;;;;5106284;28;20044;-63
2024/02/09 11:21:06;;;;;;;24.52;2.53;;;11.80;99.90;;;;;;5107319;28;20090;-63
2024/02/09 11:23:36;;;;;;;15.50;3.13;;;11.90;99.90;;;;;;5104428;28;20051;-63
2024/02/09 11:26:08;;;;;;;21.70;5.10;;;11.90;99.90;;;;;;5097728;28;20152;-63
2024/02/09 11:28:35;;;;;;;15.02;2.85;;;12.00;99.90;;;;;;5099799;28;20073;-63
2024/02/09 11:31:02;;;;;;;19.92;3.45;;;11.90;99.90;;;;;;5105331;28;20130;-63
2024/02/09 11:33:29;;;;;;;20.60;3.90;;;12.00;99.90;;;;;;5102255;28;20056;-63
2024/02/09 11:35:58;;;;;;;24.00;4.88;;;12.00;99.90;;;;;;5103143;28;20200;-63
2024/02/09 11:38:25;;;;;;;23.10;3.17;;;12.00;99.90;;;;;;5096681;28;20044;-63
2024/02/09 11:40:52;;;;;;;22.38;3.42;;;12.00;99.90;;;;;;5095039;28;20492;-63
2024/02/09 11:43:19;;;;;;;22.23;4.70;;;11.90;99.90;;;;;;5087740;28;20097;-63
2024/02/09 11:45:46;;;;;;;25.80;5.35;;;11.90;99.90;;;;;;5094749;28;20158;-64
2024/02/09 11:48:17;;;;;;;20.33;4.03;;;11.80;99.90;;;;;;5104772;28;20113;-63
2024/02/09 11:50:43;;;;;;;27.25;3.53;;;11.80;99.90;;;;;;5092793;28;20048;-63
2024/02/09 11:53:10;;;;;;;18.48;3.60;;;11.80;99.90;;;;;;5102478;28;20044;-62
2024/02/09 11:55:42;;;;;;;25.45;4.35;;;11.80;99.90;;;;;;5099375;28;20754;-63
2024/02/09 11:58:11;;;;;;;15.85;2.38;;;11.90;99.90;;;;;;5096641;28;20105;-62
2024/02/09 12:00:40;;;;;;;25.33;3.25;;;12.10;99.90;;;;;;5098292;28;20404;-62
2024/02/09 12:03:08;;;;;;;27.42;2.85;;;12.20;99.90;;;;;;5095184;28;20308;-63
2024/02/09 12:05:38;;;;;;;19.52;3.67;;;12.30;99.90;;;;;;5091405;28;20052;-63
2024/02/09 12:08:05;;;;;;;24.27;3.78;;;12.40;99.90;;;;;;5099813;28;20495;-63
2024/02/09 12:10:35;;;;;;;34.05;5.70;;;12.50;99.90;;;;;;5097470;28;20048;-63
2024/02/09 12:13:04;;;;;;;21.40;2.58;;;12.50;99.90;;;;;;5102065;28;20066;-63
2024/02/09 12:15:31;;;;;;;32.00;5.22;;;12.50;99.90;;;;;;5099726;28;20056;-63
2024/02/09 12:18:01;;;;;;;23.70;5.82;;;12.40;99.90;;;;;;5092379;28;20055;-63
2024/02/09 12:20:28;;;;;;;18.95;3.95;;;12.50;99.90;;;;;;5081607;28;20044;-63
2024/02/09 12:22:56;;;;;;;9.38;2.70;;;12.50;99.90;;;;;;5093407;27;20048;-62
2024/02/09 12:25:23;;;;;;;19.60;4.32;;;12.50;99.90;;;;;;5084095;28;20471;-62
2024/02/09 12:27:58;;;;;;;28.70;3.65;;;12.60;99.90;;;;;;5103368;28;20062;-63
2024/02/09 12:30:28;;;;;;;25.85;3.63;;;12.60;99.90;;;;;;5097586;28;20044;-63
2024/02/09 12:32:59;;;;;;;22.15;3.17;;;12.60;99.90;;;;;;5101036;28;20052;-63
2024/02/09 12:35:29;;;;;;;19.90;3.65;;;12.60;99.90;;;;;;5097046;28;20043;-63
2024/02/09 12:37:57;;;;;;;24.23;2.97;;;12.50;99.90;;;;;;5096838;28;20499;-63
2024/02/09 12:40:24;;;;;;;18.92;3.47;;;12.60;99.90;;;;;;5103234;28;20053;-65
2024/02/09 12:42:55;;;;;;;23.88;3.70;;;12.60;99.90;;;;;;5084250;28;20147;-63
2024/02/09 12:45:26;;;;;;;27.48;3.33;;;12.60;99.90;;;;;;5097527;28;20060;-63
2024/02/09 12:47:53;;;;;;;20.70;3.85;;;12.60;99.90;;;;;;5087071;28;20659;-63
2024/02/09 12:50:20;;;;;;;11.35;3.20;;;12.60;99.90;;;;;;5092804;28;20058;-63
2024/02/09 12:52:49;;;;;;;16.83;2.85;;;12.60;99.90;;;;;;5095790;28;20100;-62
2024/02/09 12:55:20;;;;;;;22.60;3.80;;;12.60;99.90;;;;;;5101068;28;20044;-63
2024/02/09 12:57:48;;;;;;;17.75;3.15;;;12.60;99.90;;;;;;5097716;28;20092;-63
2024/02/09 13:00:15;;;;;;;19.35;3.20;;;12.60;99.90;;;;;;5100232;28;20601;-63
2024/02/09 13:02:42;;;;;;;14.40;3.05;;;12.60;99.90;;;;;;5096186;28;20051;-63
2024/02/09 13:05:09;;;;;;;18.52;3.42;;;12.60;99.90;;;;;;5095182;28;20127;-63
2024/02/09 13:07:37;;;;;;;28.30;4.63;;;12.70;99.90;;;;;;5107530;28;20142;-62
2024/02/09 13:10:04;;;;;;;17.70;3.03;;;12.70;99.90;;;;;;5093602;28;20074;-63
2024/02/09 13:12:36;;;;;;;18.95;2.83;;;12.70;99.90;;;;;;5097173;28;20052;-62
2024/02/09 13:15:07;;;;;;;15.07;3.00;;;12.70;99.90;;;;;;5092861;28;20416;-63
2024/02/09 13:17:35;;;;;;;15.52;3.55;;;12.70;99.90;;;;;;5100095;28;20454;-62
2024/02/09 13:20:05;;;;;;;17.17;2.97;;;12.70;99.90;;;;;;5094831;28;20047;-62
2024/02/09 13:22:33;;;;;;;17.30;3.17;;;12.70;99.90;;;;;;5098577;28;20060;-62
2024/02/09 13:25:00;;;;;;;21.58;3.33;;;12.70;99.90;;;;;;5098013;28;20548;-63
2024/02/09 13:27:29;;;;;;;17.73;2.78;;;12.70;99.90;;;;;;5096151;28;20083;-62
2024/02/09 13:29:59;;;;;;;23.08;3.55;;;12.70;99.90;;;;;;5094639;28;20244;-63
2024/02/09 13:32:31;;;;;;;12.32;2.65;;;12.60;99.90;;;;;;5100759;28;20483;-62
2024/02/09 13:34:58;;;;;;;28.75;3.20;;;12.60;99.90;;;;;;5099918;28;20051;-62
2024/02/09 13:37:25;;;;;;;25.35;3.22;;;12.60;99.90;;;;;;5098029;28;20047;-62
2024/02/09 13:39:53;;;;;;;27.85;3.50;;;12.50;99.90;;;;;;5099305;28;20044;-61
2024/02/09 13:42:23;;;;;;;21.35;3.88;;;12.60;99.90;;;;;;5094530;28;20058;-62
2024/02/09 13:44:49;;;;;;;22.45;3.60;;;12.60;99.90;;;;;;5102789;28;20514;-60
2024/02/09 13:47:16;;;;;;;24.63;4.00;;;12.60;99.90;;;;;;5097800;28;20814;-62
2024/02/09 13:49:44;;;;;;;31.20;5.63;;;12.60;99.90;;;;;;5094643;28;20040;-62
2024/02/09 13:52:11;;;;;;;21.73;4.05;;;12.60;99.90;;;;;;5094968;28;20164;-60
2024/02/09 13:54:38;;;;;;;20.15;3.25;;;12.60;99.90;;;;;;5094242;28;20468;-62
2024/02/09 13:57:05;;;;;;;25.80;4.72;;;12.50;99.90;;;;;;5099124;28;20047;-61
2024/02/09 13:59:32;;;;;;;14.05;2.47;;;12.60;99.90;;;;;;5097429;28;20472;-62
2024/02/09 14:01:59;;;;;;;15.20;3.13;;;12.80;99.90;;;;;;5092290;28;20547;-63
2024/02/09 14:04:26;;;;;;;33.13;3.88;;;12.80;99.90;;;;;;5098440;28;20050;-62
2024/02/09 14:06:53;;;;;;;12.35;3.30;;;12.90;99.90;;;;;;5104497;28;20223;-62
2024/02/09 14:09:20;;;;;;;13.10;2.60;;;13.00;99.90;;;;;;5090199;28;20048;-63
2024/02/09 14:11:47;;;;;;;23.20;3.05;;;13.00;99.90;;;;;;5102215;28;20048;-63
2024/02/09 14:14:18;;;;;;;14.55;3.25;;;13.10;99.90;;;;;;5099626;28;20071;-63
2024/02/09 14:16:46;;;;;;;15.27;3.30;;;13.00;99.90;;;;;;5102381;28;20070;-62
2024/02/09 14:19:13;;;;;;;18.60;2.78;;;13.10;99.90;;;;;;5099524;28;20099;-62
2024/02/09 14:21:40;;;;;;;9.90;2.72;;;13.10;99.90;;;;;;5100069;28;20039;-62
2024/02/09 14:24:07;;;;;;;16.73;3.13;;;13.10;99.90;;;;;;5095479;28;20052;-62
2024/02/09 14:26:34;;;;;;;13.15;2.85;;;13.00;99.90;;;;;;5089781;28;20055;-62
2024/02/09 14:29:02;;;;;;;20.13;2.58;;;13.10;99.90;;;;;;5094004;28;20101;-62
2024/02/09 14:31:29;;;;;;;19.48;3.33;;;13.10;99.90;;;;;;5095039;28;20066;-62
2024/02/09 14:33:56;;;;;;;10.45;2.20;;;13.00;99.90;;;;;;5095703;28;20048;-62
2024/02/09 14:36:23;;;;;;;19.60;3.28;;;13.00;99.90;;;;;;5096898;28;20467;-62
2024/02/09 14:38:50;;;;;;;18.05;3.85;;;13.00;99.90;;;;;;5099372;28;20093;-62